createdAt,value
2017-04-19T00:00:53.981Z,0
2017-04-19T00:01:53.967Z,0
2017-04-19T00:02:53.933Z,0
2017-04-19T00:03:53.905Z,0
2017-04-19T00:04:53.881Z,0
2017-04-19T00:05:53.860Z,0
2017-04-19T00:06:53.837Z,0
2017-04-19T00:07:53.824Z,0
2017-04-19T00:08:53.791Z,0
2017-04-19T00:09:53.466Z,0
2017-04-19T00:10:53.738Z,0
2017-04-19T00:11:53.714Z,0
2017-04-19T00:12:53.691Z,0
2017-04-19T00:13:53.675Z,0
2017-04-19T00:14:53.345Z,0
2017-04-19T00:15:53.319Z,0
2017-04-19T00:16:53.752Z,0
2017-04-19T00:17:53.484Z,0
2017-04-19T00:18:53.555Z,0
2017-04-19T00:19:53.524Z,0
2017-04-19T00:20:53.510Z,0
2017-04-19T00:21:53.476Z,0
2017-04-19T00:22:53.457Z,0
2017-04-19T00:23:53.130Z,0
2017-04-19T00:24:53.112Z,0
2017-04-19T00:25:53.084Z,0
2017-04-19T00:26:53.060Z,0
2017-04-19T00:27:53.034Z,0
2017-04-19T00:28:53.322Z,0
2017-04-19T00:29:53.289Z,0
2017-04-19T00:30:53.263Z,0
2017-04-19T00:31:53.245Z,0
2017-04-19T00:32:53.212Z,0
2017-04-19T00:33:53.192Z,0
2017-04-19T00:34:53.167Z,0
2017-04-19T00:35:52.843Z,0
2017-04-19T00:36:53.119Z,0
2017-04-19T00:37:53.089Z,0
2017-04-19T00:38:53.067Z,0
2017-04-19T00:39:53.070Z,0
2017-04-19T00:40:53.021Z,0
2017-04-19T00:41:52.995Z,0
2017-04-19T00:42:52.967Z,0
2017-04-19T00:43:52.644Z,0
2017-04-19T00:44:52.988Z,0
2017-04-19T00:45:52.896Z,0
2017-04-19T00:46:52.873Z,0
2017-04-19T00:47:52.852Z,0
2017-04-19T00:48:52.824Z,0
2017-04-19T00:49:52.800Z,0
2017-04-19T00:50:52.768Z,0
2017-04-19T00:51:52.751Z,0
2017-04-19T00:52:52.723Z,0
2017-04-19T00:53:52.701Z,0
2017-04-19T00:54:52.680Z,0
2017-04-19T00:55:52.646Z,0
2017-04-19T00:56:52.646Z,0
2017-04-19T00:57:52.607Z,0
2017-04-19T00:58:52.589Z,0
2017-04-19T00:59:52.558Z,0
2017-04-19T01:00:52.531Z,0
2017-04-19T01:01:52.507Z,0
2017-04-19T01:02:52.484Z,0
2017-04-19T01:03:52.157Z,0
2017-04-19T01:04:52.436Z,0
2017-04-19T01:05:52.406Z,0
2017-04-19T01:06:52.384Z,0
2017-04-19T01:07:52.357Z,0
2017-04-19T01:08:52.335Z,0
2017-04-19T01:09:52.312Z,0
2017-04-19T01:10:52.292Z,0
2017-04-19T01:11:52.281Z,0
2017-04-19T01:12:52.246Z,0
2017-04-19T01:13:51.918Z,0
2017-04-19T01:14:52.199Z,0
2017-04-19T01:15:51.864Z,0
2017-04-19T01:16:52.144Z,0
2017-04-19T01:17:52.124Z,0
2017-04-19T01:18:52.102Z,0
2017-04-19T01:19:52.080Z,0
2017-04-19T01:20:51.750Z,0
2017-04-19T01:21:52.031Z,0
2017-04-19T01:22:52.015Z,0
2017-04-19T01:23:51.986Z,0
2017-04-19T01:24:51.962Z,0
2017-04-19T01:25:51.632Z,0
2017-04-19T01:26:51.909Z,0
2017-04-19T01:27:51.889Z,0
2017-04-19T01:28:51.562Z,0
2017-04-19T01:29:51.572Z,0
2017-04-19T01:30:51.518Z,0
2017-04-19T01:31:51.493Z,0
2017-04-19T01:32:51.775Z,0
2017-04-19T01:33:51.753Z,0
2017-04-19T01:34:51.729Z,0
2017-04-19T01:35:51.795Z,0
2017-04-19T01:36:51.680Z,0
2017-04-19T01:37:51.645Z,0
2017-04-19T01:38:51.625Z,0
2017-04-19T01:39:51.604Z,0
2017-04-19T01:40:51.577Z,0
2017-04-19T01:41:51.546Z,0
2017-04-19T01:42:51.537Z,0
2017-04-19T01:43:51.512Z,0
2017-04-19T01:44:51.485Z,0
2017-04-19T01:45:51.459Z,0
2017-04-19T01:46:51.429Z,0
2017-04-19T01:47:51.110Z,0
2017-04-19T01:48:51.384Z,0
2017-04-19T01:49:51.359Z,0
2017-04-19T01:50:51.442Z,0
2017-04-19T01:51:51.308Z,0
2017-04-19T01:52:51.287Z,0
2017-04-19T01:53:51.268Z,0
2017-04-19T01:54:51.240Z,0
2017-04-19T01:55:51.219Z,0
2017-04-19T01:56:51.193Z,0
2017-04-19T01:57:51.165Z,0
2017-04-19T01:58:51.146Z,0
2017-04-19T01:59:50.816Z,0
2017-04-19T02:00:50.796Z,0
2017-04-19T02:01:50.764Z,0
2017-04-19T02:02:50.747Z,0
2017-04-19T02:03:51.019Z,0
2017-04-19T02:04:50.694Z,0
2017-04-19T02:05:50.672Z,0
2017-04-19T02:06:50.652Z,0
2017-04-19T02:07:50.625Z,0
2017-04-19T02:08:50.606Z,0
2017-04-19T02:09:50.876Z,0
2017-04-19T02:10:50.857Z,0
2017-04-19T02:11:50.530Z,0
2017-04-19T02:12:50.810Z,0
2017-04-19T02:13:50.789Z,0
2017-04-19T02:14:50.753Z,0
2017-04-19T02:15:50.731Z,0
2017-04-19T02:16:50.707Z,0
2017-04-19T02:17:50.686Z,0
2017-04-19T02:18:50.475Z,0
2017-04-19T02:19:50.635Z,0
2017-04-19T02:20:50.611Z,0
2017-04-19T02:21:50.588Z,0
2017-04-19T02:22:50.558Z,0
2017-04-19T02:23:50.539Z,0
2017-04-19T02:24:50.506Z,0
2017-04-19T02:25:50.483Z,0
2017-04-19T02:26:50.457Z,0
2017-04-19T02:27:50.459Z,0
2017-04-19T02:28:50.415Z,0
2017-04-19T02:29:50.385Z,0
2017-04-19T02:30:50.361Z,0
2017-04-19T02:31:50.336Z,0
2017-04-19T02:32:50.313Z,0
2017-04-19T02:33:50.288Z,0
2017-04-19T02:34:50.269Z,0
2017-04-19T02:35:50.237Z,0
2017-04-19T02:36:50.210Z,0
2017-04-19T02:37:50.185Z,0
2017-04-19T02:38:50.164Z,0
2017-04-19T02:39:50.144Z,0
2017-04-19T02:40:50.124Z,0
2017-04-19T02:41:50.082Z,0
2017-04-19T02:42:50.064Z,0
2017-04-19T02:43:50.035Z,0
2017-04-19T02:44:49.714Z,0
2017-04-19T02:45:50.000Z,0
2017-04-19T02:46:49.663Z,0
2017-04-19T02:47:49.935Z,0
2017-04-19T02:48:49.914Z,0
2017-04-19T02:49:49.893Z,0
2017-04-19T02:50:49.862Z,0
2017-04-19T02:51:49.834Z,0
2017-04-19T02:52:49.809Z,0
2017-04-19T02:53:49.786Z,0
2017-04-19T02:54:49.783Z,0
2017-04-19T02:55:50.006Z,0
2017-04-19T02:56:49.705Z,0
2017-04-19T02:57:49.685Z,0
2017-04-19T02:58:49.657Z,0
2017-04-19T02:59:49.643Z,0
2017-04-19T03:00:49.600Z,0
2017-04-19T03:01:49.585Z,0
2017-04-19T03:02:49.554Z,0
2017-04-19T03:03:48.929Z,0
2017-04-19T03:04:49.503Z,0
2017-04-19T03:05:49.475Z,0
2017-04-19T03:06:49.148Z,0
2017-04-19T03:07:49.123Z,0
2017-04-19T03:08:49.406Z,0
2017-04-19T03:09:49.378Z,0
2017-04-19T03:10:49.350Z,0
2017-04-19T03:11:49.325Z,0
2017-04-19T03:12:49.002Z,0
2017-04-19T03:13:48.973Z,0
2017-04-19T03:14:49.247Z,0
2017-04-19T03:15:49.225Z,0
2017-04-19T03:16:49.196Z,0
2017-04-19T03:17:49.178Z,0
2017-04-19T03:18:49.153Z,0
2017-04-19T03:19:49.122Z,0
2017-04-19T03:20:49.097Z,0
2017-04-19T03:21:49.070Z,0
2017-04-19T03:22:49.057Z,0
2017-04-19T03:23:48.740Z,0
2017-04-19T03:24:48.696Z,0
2017-04-19T03:25:48.977Z,0
2017-04-19T03:26:48.950Z,0
2017-04-19T03:27:48.625Z,0
2017-04-19T03:28:48.900Z,0
2017-04-19T03:29:48.877Z,0
2017-04-19T03:30:48.846Z,0
2017-04-19T03:31:48.939Z,0
2017-04-19T03:32:48.804Z,0
2017-04-19T03:33:48.774Z,0
2017-04-19T03:34:48.443Z,0
2017-04-19T03:35:48.723Z,0
2017-04-19T03:36:48.395Z,0
2017-04-19T03:37:48.672Z,0
2017-04-19T03:38:48.648Z,0
2017-04-19T03:39:48.628Z,0
2017-04-19T03:40:48.603Z,0
2017-04-19T03:41:48.573Z,0
2017-04-19T03:42:48.556Z,0
2017-04-19T03:43:48.530Z,0
2017-04-19T03:44:48.497Z,0
2017-04-19T03:45:48.482Z,0
2017-04-19T03:46:48.455Z,0
2017-04-19T03:47:48.428Z,0
2017-04-19T03:48:48.409Z,0
2017-04-19T03:49:48.458Z,0
2017-04-19T03:50:48.357Z,0
2017-04-19T03:51:48.340Z,0
2017-04-19T03:52:48.008Z,0
2017-04-19T03:53:48.282Z,0
2017-04-19T03:54:48.262Z,0
2017-04-19T03:55:48.230Z,4
2017-04-19T03:56:47.928Z,4
2017-04-19T03:57:48.187Z,4
2017-04-19T03:58:48.161Z,4
2017-04-19T03:59:48.137Z,4
2017-04-19T04:00:48.108Z,8
2017-04-19T04:01:48.290Z,4
2017-04-19T04:02:48.072Z,8
2017-04-19T04:03:48.046Z,8
2017-04-19T04:04:48.014Z,8
2017-04-19T04:05:47.989Z,12
2017-04-19T04:06:48.063Z,16
2017-04-19T04:07:47.937Z,16
2017-04-19T04:08:47.918Z,20
2017-04-19T04:09:47.900Z,20
2017-04-19T04:10:47.867Z,24
2017-04-19T04:11:47.850Z,28
2017-04-19T04:12:47.819Z,32
2017-04-19T04:13:47.796Z,36
2017-04-19T04:14:47.771Z,44
2017-04-19T04:15:47.749Z,48
2017-04-19T04:16:47.724Z,52
2017-04-19T04:17:47.700Z,56
2017-04-19T04:18:47.670Z,68
2017-04-19T04:19:47.647Z,72
2017-04-19T04:20:47.622Z,80
2017-04-19T04:21:47.595Z,92
2017-04-19T04:22:47.575Z,96
2017-04-19T04:23:47.554Z,108
2017-04-19T04:24:47.524Z,112
2017-04-19T04:25:47.498Z,120
2017-04-19T04:26:47.476Z,132
2017-04-19T04:27:47.448Z,144
2017-04-19T04:28:47.427Z,156
2017-04-19T04:29:47.404Z,172
2017-04-19T04:30:46.769Z,188
2017-04-19T04:31:47.348Z,200
2017-04-19T04:32:47.319Z,220
2017-04-19T04:33:47.298Z,240
2017-04-19T04:34:47.274Z,268
2017-04-19T04:35:47.247Z,300
2017-04-19T04:36:47.225Z,332
2017-04-19T04:37:47.195Z,372
2017-04-19T04:38:47.174Z,412
2017-04-19T04:39:47.153Z,440
2017-04-19T04:40:47.129Z,480
2017-04-19T04:41:46.805Z,524
2017-04-19T04:42:47.076Z,580
2017-04-19T04:43:46.831Z,648
2017-04-19T04:44:46.730Z,708
2017-04-19T04:45:46.701Z,740
2017-04-19T04:46:46.975Z,728
2017-04-19T04:47:46.957Z,704
2017-04-19T04:58:52.200Z,892
2017-04-19T04:59:46.660Z,908
2017-04-19T05:00:46.646Z,928
2017-04-19T05:01:46.617Z,940
2017-04-19T05:02:46.590Z,932
2017-04-19T05:03:45.964Z,932
2017-04-19T05:04:46.546Z,932
2017-04-19T05:05:46.523Z,944
2017-04-19T05:06:46.497Z,948
2017-04-19T05:07:46.474Z,956
2017-04-19T05:08:46.445Z,976
2017-04-19T05:09:46.424Z,1000
2017-04-19T05:10:46.404Z,1020
2017-04-19T05:11:46.592Z,1056
2017-04-19T05:12:46.348Z,1076
2017-04-19T05:13:46.126Z,1104
2017-04-19T05:14:46.302Z,1144
2017-04-19T05:15:46.273Z,1192
2017-04-19T05:16:46.256Z,1228
2017-04-19T05:17:46.272Z,1264
2017-04-19T05:18:46.201Z,1284
2017-04-19T05:19:46.180Z,1316
2017-04-19T05:20:46.528Z,1368
2017-04-19T05:21:46.161Z,1408
2017-04-19T05:22:45.805Z,1432
2017-04-19T05:23:45.813Z,1472
2017-04-19T05:24:46.060Z,1532
2017-04-19T05:25:45.734Z,1540
2017-04-19T05:26:46.006Z,1580
2017-04-19T05:27:45.976Z,1600
2017-04-19T05:28:45.957Z,1584
2017-04-19T05:29:45.930Z,1584
2017-04-19T05:30:45.901Z,1644
2017-04-19T05:31:45.573Z,1732
2017-04-19T05:32:45.850Z,1828
2017-04-19T05:33:45.827Z,1908
2017-04-19T05:34:45.903Z,2000
2017-04-19T05:35:45.777Z,2056
2017-04-19T05:36:45.753Z,2032
2017-04-19T05:37:45.723Z,2068
2017-04-19T05:38:45.454Z,2140
2017-04-19T05:39:45.674Z,2156
2017-04-19T05:40:45.370Z,2212
2017-04-19T05:41:45.621Z,2204
2017-04-19T05:42:45.595Z,2208
2017-04-19T05:43:45.572Z,2188
2017-04-19T05:44:45.541Z,2164
2017-04-19T05:45:45.517Z,2108
2017-04-19T05:46:45.495Z,2064
2017-04-19T05:47:45.465Z,2092
2017-04-19T05:48:45.438Z,2112
2017-04-19T05:49:45.415Z,2156
2017-04-19T05:50:45.390Z,2104
2017-04-19T05:51:45.361Z,2160
2017-04-19T05:52:45.338Z,2212
2017-04-19T05:53:45.311Z,2220
2017-04-19T05:54:45.290Z,2200
2017-04-19T05:55:45.257Z,2244
2017-04-19T05:56:45.245Z,2324
2017-04-19T05:57:45.208Z,2444
2017-04-19T05:58:44.871Z,2552
2017-04-19T05:59:45.172Z,2668
2017-04-19T06:00:45.129Z,2828
2017-04-19T06:01:45.107Z,3012
2017-04-19T06:02:45.078Z,3108
2017-04-19T06:03:45.049Z,3316
2017-04-19T06:04:45.022Z,3452
2017-04-19T06:05:45.208Z,3564
2017-04-19T06:06:44.670Z,3628
2017-04-19T06:07:44.648Z,3744
2017-04-19T06:08:44.614Z,4004
2017-04-19T06:09:44.600Z,4316
2017-04-19T06:10:44.863Z,4556
2017-04-19T06:11:44.843Z,4732
2017-04-19T06:12:44.816Z,4900
2017-04-19T06:13:44.789Z,5100
2017-04-19T06:14:44.910Z,5416
2017-04-19T06:15:44.742Z,5588
2017-04-19T06:16:44.721Z,5616
2017-04-19T06:17:44.685Z,5680
2017-04-19T06:18:44.664Z,5756
2017-04-19T06:19:44.641Z,5632
2017-04-19T06:20:44.615Z,5672
2017-04-19T06:21:44.584Z,5696
2017-04-19T06:22:44.258Z,5752
2017-04-19T06:23:44.537Z,5956
2017-04-19T06:24:44.204Z,6224
2017-04-19T06:25:44.580Z,6336
2017-04-19T06:26:44.465Z,6068
2017-04-19T06:27:44.434Z,6024
2017-04-19T06:28:44.415Z,5976
2017-04-19T06:29:44.388Z,5920
2017-04-19T06:30:44.360Z,6072
2017-04-19T06:31:44.338Z,6492
2017-04-19T06:32:44.307Z,6716
2017-04-19T06:33:44.285Z,7116
2017-04-19T06:34:44.260Z,7216
2017-04-19T06:35:44.235Z,7460
2017-04-19T06:36:44.209Z,7636
2017-04-19T06:37:43.884Z,7896
2017-04-19T06:38:44.162Z,8064
2017-04-19T06:39:44.140Z,8292
2017-04-19T06:40:44.151Z,8252
2017-04-19T06:41:44.089Z,8092
2017-04-19T06:42:44.064Z,8212
2017-04-19T06:43:44.043Z,8276
2017-04-19T06:44:44.047Z,8188
2017-04-19T06:45:43.987Z,8092
2017-04-19T06:46:43.963Z,8108
2017-04-19T06:47:43.951Z,8176
2017-04-19T06:48:43.916Z,8100
2017-04-19T06:49:43.890Z,8076
2017-04-19T06:50:43.860Z,8256
2017-04-19T06:51:43.839Z,8088
2017-04-19T06:52:43.809Z,7812
2017-04-19T06:53:43.792Z,7836
2017-04-19T06:54:43.760Z,7996
2017-04-19T06:55:43.747Z,7936
2017-04-19T06:56:43.713Z,7600
2017-04-19T06:57:43.692Z,7236
2017-04-19T06:58:43.666Z,6716
2017-04-19T06:59:43.742Z,6360
2017-04-19T07:00:43.621Z,6372
2017-04-19T07:01:43.592Z,6584
2017-04-19T07:02:43.264Z,6800
2017-04-19T07:03:43.241Z,6848
2017-04-19T07:04:43.221Z,6868
2017-04-19T07:05:43.490Z,6980
2017-04-19T07:06:43.471Z,7168
2017-04-19T07:07:43.446Z,7352
2017-04-19T07:08:43.516Z,7408
2017-04-19T07:09:43.398Z,7544
2017-04-19T07:10:43.372Z,7840
2017-04-19T07:11:43.049Z,8268
2017-04-19T07:12:43.357Z,8724
2017-04-19T07:13:43.297Z,9320
2017-04-19T07:14:43.292Z,9496
2017-04-19T07:15:42.954Z,9520
2017-04-19T07:16:43.230Z,9244
2017-04-19T07:17:43.463Z,8584
2017-04-19T07:18:43.276Z,8196
2017-04-19T07:19:43.154Z,8168
2017-04-19T07:20:42.828Z,8460
2017-04-19T07:21:43.115Z,8756
2017-04-19T07:22:43.089Z,9144
2017-04-19T07:23:43.053Z,8996
2017-04-19T07:24:43.035Z,8916
2017-04-19T07:25:43.014Z,8808
2017-04-19T07:26:43.229Z,8836
2017-04-19T07:27:42.655Z,8916
2017-04-19T07:28:42.934Z,8760
2017-04-19T07:29:42.914Z,8888
2017-04-19T07:30:42.892Z,8808
2017-04-19T07:31:42.871Z,8780
2017-04-19T07:32:42.540Z,8600
2017-04-19T07:33:42.821Z,8344
2017-04-19T07:34:42.799Z,8280
2017-04-19T07:35:42.819Z,8328
2017-04-19T07:36:42.448Z,8652
2017-04-19T07:37:42.727Z,8876
2017-04-19T07:38:42.404Z,8736
2017-04-19T07:39:42.692Z,8664
2017-04-19T07:40:42.663Z,9220
2017-04-19T07:41:42.640Z,10344
2017-04-19T07:42:42.608Z,11608
2017-04-19T07:43:42.586Z,12592
2017-04-19T07:44:42.564Z,13232
2017-04-19T07:45:42.239Z,13268
2017-04-19T07:46:42.514Z,13124
2017-04-19T07:47:42.489Z,13284
2017-04-19T07:48:42.467Z,13696
2017-04-19T07:49:42.450Z,13800
2017-04-19T07:50:42.424Z,13788
2017-04-19T07:51:42.399Z,14012
2017-04-19T07:52:42.373Z,14164
2017-04-19T07:53:42.052Z,13980
2017-04-19T07:54:42.533Z,13836
2017-04-19T07:55:42.001Z,13984
2017-04-19T07:56:41.980Z,13932
2017-04-19T07:57:42.257Z,13936
2017-04-19T07:58:42.232Z,14032
2017-04-19T07:59:42.212Z,14208
2017-04-19T08:00:41.884Z,14036
2017-04-19T08:01:41.862Z,13596
2017-04-19T08:02:41.841Z,13380
2017-04-19T08:03:42.114Z,13260
2017-04-19T08:04:42.146Z,13232
2017-04-19T08:05:42.075Z,13092
2017-04-19T08:06:41.757Z,12896
2017-04-19T08:07:42.024Z,12676
2017-04-19T08:08:42.001Z,12536
2017-04-19T08:09:41.678Z,12544
2017-04-19T08:10:41.962Z,12408
2017-04-19T08:11:41.939Z,12220
2017-04-19T08:12:41.615Z,12260
2017-04-19T08:13:41.892Z,12300
2017-04-19T08:14:41.566Z,12212
2017-04-19T08:15:41.845Z,12268
2017-04-19T08:16:41.824Z,12036
2017-04-19T08:17:41.798Z,11772
2017-04-19T08:18:41.777Z,11448
2017-04-19T08:19:41.758Z,11012
2017-04-19T08:20:41.735Z,10892
2017-04-19T08:21:41.409Z,10876
2017-04-19T08:22:41.388Z,11004
2017-04-19T08:23:41.668Z,11204
2017-04-19T08:24:41.344Z,11380
2017-04-19T08:25:41.333Z,12000
2017-04-19T08:26:41.296Z,12544
2017-04-19T08:27:41.276Z,12700
2017-04-19T08:28:41.247Z,12612
2017-04-19T08:29:41.269Z,12532
2017-04-19T08:30:41.507Z,12536
2017-04-19T08:31:41.179Z,12764
2017-04-19T08:32:42.002Z,12424
2017-04-19T08:33:41.130Z,12376
2017-04-19T08:34:41.108Z,12736
2017-04-19T08:35:41.382Z,12632
2017-04-19T08:36:41.062Z,12420
2017-04-19T08:37:41.341Z,12528
2017-04-19T08:38:41.313Z,12768
2017-04-19T08:39:41.291Z,12864
2017-04-19T08:40:40.965Z,12852
2017-04-19T08:41:41.055Z,12632
2017-04-19T08:42:40.614Z,12460
2017-04-19T08:43:41.196Z,12064
2017-04-19T08:44:41.175Z,11720
2017-04-19T08:45:41.151Z,11584
2017-04-19T08:46:41.124Z,11584
2017-04-19T08:47:41.103Z,11824
2017-04-19T08:48:41.076Z,11820
2017-04-19T08:49:40.751Z,11752
2017-04-19T08:50:41.032Z,11604
2017-04-19T08:51:41.025Z,11416
2017-04-19T08:52:40.983Z,11188
2017-04-19T08:53:40.960Z,11084
2017-04-19T08:54:40.933Z,11376
2017-04-19T08:55:40.611Z,11856
2017-04-19T08:56:40.590Z,11992
2017-04-19T08:57:40.566Z,11996
2017-04-19T08:58:40.845Z,12140
2017-04-19T08:59:40.818Z,12412
2017-04-19T09:00:40.791Z,12700
2017-04-19T09:01:40.958Z,12524
2017-04-19T09:02:40.743Z,12136
2017-04-19T09:03:40.424Z,11968
2017-04-19T09:04:40.395Z,11784
2017-04-19T09:05:40.370Z,11772
2017-04-19T09:06:40.345Z,11980
2017-04-19T09:07:40.658Z,12180
2017-04-19T09:08:40.605Z,12184
2017-04-19T09:09:40.573Z,11876
2017-04-19T09:10:40.564Z,11668
2017-04-19T09:11:40.230Z,11604
2017-04-19T09:12:40.204Z,11912
2017-04-19T09:13:40.482Z,12060
2017-04-19T09:14:40.461Z,11872
2017-04-19T09:15:40.462Z,11804
2017-04-19T09:16:40.411Z,13412
2017-04-19T09:17:40.387Z,14892
2017-04-19T09:18:40.060Z,15168
2017-04-19T09:19:40.336Z,16188
2017-04-19T09:20:40.406Z,16672
2017-04-19T09:21:40.293Z,16572
2017-04-19T09:22:40.269Z,17040
2017-04-19T09:23:40.241Z,16976
2017-04-19T09:24:39.918Z,16048
2017-04-19T09:25:40.199Z,14868
2017-04-19T09:26:40.178Z,14012
2017-04-19T09:27:40.149Z,13516
2017-04-19T09:28:40.125Z,13152
2017-04-19T09:29:40.142Z,13156
2017-04-19T09:30:40.078Z,13660
2017-04-19T09:31:39.749Z,14200
2017-04-19T09:32:40.027Z,14248
2017-04-19T09:33:39.703Z,13736
2017-04-19T09:34:39.987Z,13100
2017-04-19T09:35:39.670Z,13048
2017-04-19T09:36:39.634Z,13856
2017-04-19T09:37:39.918Z,14736
2017-04-19T09:38:39.931Z,15268
2017-04-19T09:39:39.872Z,15576
2017-04-19T09:40:39.845Z,15332
2017-04-19T09:41:39.832Z,14800
2017-04-19T09:42:39.797Z,14940
2017-04-19T09:43:39.778Z,15416
2017-04-19T09:44:39.752Z,15916
2017-04-19T09:45:39.725Z,16216
2017-04-19T09:46:39.710Z,16176
2017-04-19T09:47:39.464Z,15896
2017-04-19T09:48:39.661Z,15632
2017-04-19T09:49:39.636Z,15564
2017-04-19T09:50:39.641Z,15556
2017-04-19T09:51:39.297Z,15676
2017-04-19T09:52:39.575Z,15824
2017-04-19T09:53:39.248Z,15772
2017-04-19T09:54:39.227Z,15928
2017-04-19T09:55:39.515Z,16148
2017-04-19T09:56:39.479Z,16456
2017-04-19T09:57:39.180Z,16400
2017-04-19T09:58:39.446Z,16336
2017-04-19T09:59:39.120Z,16296
2017-04-19T10:00:39.098Z,16400
2017-04-19T10:01:39.392Z,16468
2017-04-19T10:02:39.065Z,16488
2017-04-19T10:03:39.371Z,16356
2017-04-19T10:04:39.019Z,16220
2017-04-19T10:05:39.310Z,16204
2017-04-19T10:06:39.282Z,16160
2017-04-19T10:07:38.945Z,15900
2017-04-19T10:08:39.235Z,15656
2017-04-19T10:09:39.217Z,15628
2017-04-19T10:10:39.192Z,16176
2017-04-19T10:11:38.864Z,16920
2017-04-19T10:12:39.140Z,17016
2017-04-19T10:13:38.814Z,16560
2017-04-19T10:14:38.794Z,16412
2017-04-19T10:15:38.168Z,16812
2017-04-19T10:16:39.053Z,17316
2017-04-19T10:17:39.035Z,17980
2017-04-19T10:18:39.008Z,18664
2017-04-19T10:19:38.984Z,19488
2017-04-19T10:20:38.659Z,20128
2017-04-19T10:21:38.936Z,20256
2017-04-19T10:22:38.309Z,20448
2017-04-19T10:23:38.895Z,20576
2017-04-19T10:24:38.866Z,20512
2017-04-19T10:25:38.576Z,20544
2017-04-19T10:26:38.522Z,20256
2017-04-19T10:27:38.500Z,19744
2017-04-19T10:28:38.780Z,19376
2017-04-19T10:29:38.454Z,19776
2017-04-19T10:30:38.429Z,20256
2017-04-19T10:31:38.109Z,21056
2017-04-19T10:32:38.392Z,23488
2017-04-19T10:33:38.069Z,22976
2017-04-19T10:34:38.048Z,22368
2017-04-19T10:35:38.628Z,21728
2017-04-19T10:36:38.303Z,21408
2017-04-19T10:37:38.580Z,23200
2017-04-19T10:38:38.562Z,24448
2017-04-19T10:39:38.544Z,24512
2017-04-19T10:40:38.518Z,24544
2017-04-19T10:41:38.193Z,23776
2017-04-19T10:42:38.473Z,22656
2017-04-19T10:43:38.152Z,21632
2017-04-19T10:44:38.554Z,20800
2017-04-19T10:45:38.110Z,20512
2017-04-19T10:46:38.395Z,21248
2017-04-19T10:47:37.777Z,21216
2017-04-19T10:48:37.746Z,20544
2017-04-19T10:49:37.724Z,19840
2017-04-19T10:50:38.312Z,18892
2017-04-19T10:51:38.287Z,18480
2017-04-19T10:52:38.275Z,19168
2017-04-19T10:53:37.642Z,18964
2017-04-19T10:54:37.924Z,17756
2017-04-19T10:55:38.209Z,16876
2017-04-19T10:56:38.187Z,17016
2017-04-19T10:57:38.166Z,17644
2017-04-19T10:58:38.146Z,17532
2017-04-19T10:59:38.126Z,17104
2017-04-19T11:00:37.798Z,16784
2017-04-19T11:01:38.080Z,16052
2017-04-19T11:02:38.153Z,15652
2017-04-19T11:03:37.741Z,15748
2017-04-19T11:04:38.023Z,15260
2017-04-19T11:05:37.996Z,15320
2017-04-19T11:06:37.676Z,15824
2017-04-19T11:07:37.659Z,15992
2017-04-19T11:08:37.939Z,15916
2017-04-19T11:09:37.923Z,15936
2017-04-19T11:10:37.592Z,16416
2017-04-19T11:11:37.576Z,17268
2017-04-19T11:12:37.558Z,17456
2017-04-19T11:13:37.835Z,17196
2017-04-19T11:14:37.808Z,17152
2017-04-19T11:15:37.189Z,17092
2017-04-19T11:16:37.173Z,16356
2017-04-19T11:17:37.752Z,16784
2017-04-19T11:18:37.726Z,16784
2017-04-19T11:19:37.713Z,16552
2017-04-19T11:20:37.387Z,16956
2017-04-19T11:21:37.670Z,17712
2017-04-19T11:22:37.348Z,18344
2017-04-19T11:23:37.626Z,18324
2017-04-19T11:24:37.606Z,17888
2017-04-19T11:25:37.284Z,17240
2017-04-19T11:26:37.568Z,16656
2017-04-19T11:27:37.252Z,16076
2017-04-19T11:28:37.520Z,15544
2017-04-19T11:29:37.204Z,15484
2017-04-19T11:30:37.493Z,15616
2017-04-19T11:31:37.463Z,15828
2017-04-19T11:32:37.450Z,16540
2017-04-19T11:33:37.412Z,17720
2017-04-19T11:34:37.114Z,18172
2017-04-19T11:35:37.083Z,17832
2017-04-19T11:36:37.367Z,18156
2017-04-19T11:37:37.031Z,17664
2017-04-19T11:38:37.308Z,17796
2017-04-19T11:39:36.985Z,18600
2017-04-19T11:40:37.275Z,18912
2017-04-19T11:41:37.249Z,18952
2017-04-19T11:42:36.916Z,18512
2017-04-19T11:43:36.894Z,18080
2017-04-19T11:44:37.173Z,17932
2017-04-19T11:45:37.152Z,17772
2017-04-19T11:46:36.828Z,17672
2017-04-19T11:47:36.500Z,17520
2017-04-19T11:48:36.802Z,17556
2017-04-19T11:49:36.768Z,17344
2017-04-19T11:50:36.436Z,18044
2017-04-19T11:51:37.041Z,18964
2017-04-19T11:52:36.994Z,19292
2017-04-19T11:53:36.965Z,20000
2017-04-19T11:54:36.945Z,21184
2017-04-19T11:55:36.921Z,23168
2017-04-19T11:56:36.896Z,22688
2017-04-19T11:57:36.867Z,22112
2017-04-19T11:58:36.544Z,21792
2017-04-19T11:59:36.828Z,22752
2017-04-19T12:00:36.522Z,22848
2017-04-19T12:01:36.777Z,21248
2017-04-19T12:02:36.760Z,19776
2017-04-19T12:03:36.428Z,18984
2017-04-19T12:04:36.404Z,18764
2017-04-19T12:05:36.682Z,19044
2017-04-19T12:06:36.354Z,19392
2017-04-19T12:07:36.335Z,19152
2017-04-19T12:08:36.308Z,19968
2017-04-19T12:09:36.588Z,22336
2017-04-19T12:10:36.264Z,23168
2017-04-19T12:11:36.240Z,22336
2017-04-19T12:12:36.217Z,21280
2017-04-19T12:13:36.490Z,22848
2017-04-19T12:14:36.470Z,24192
2017-04-19T12:15:36.446Z,24832
2017-04-19T12:16:36.117Z,26784
2017-04-19T12:17:36.343Z,23872
2017-04-19T12:18:36.073Z,22048
2017-04-19T12:19:36.356Z,23104
2017-04-19T12:20:36.336Z,31808
2017-04-19T12:21:36.315Z,28512
2017-04-19T12:22:35.987Z,26176
2017-04-19T12:23:36.266Z,24928
2017-04-19T12:24:36.251Z,24608
2017-04-19T12:25:36.228Z,23936
2017-04-19T12:26:36.208Z,22336
2017-04-19T12:27:35.882Z,20896
2017-04-19T12:28:36.157Z,21728
2017-04-19T12:29:36.146Z,23072
2017-04-19T12:30:36.116Z,24352
2017-04-19T12:31:36.108Z,24736
2017-04-19T12:32:35.776Z,24832
2017-04-19T12:33:35.757Z,25568
2017-04-19T12:34:36.046Z,25312
2017-04-19T12:35:36.015Z,24960
2017-04-19T12:36:35.997Z,24768
2017-04-19T12:37:35.978Z,23552
2017-04-19T12:38:35.653Z,22112
2017-04-19T12:39:35.637Z,20736
2017-04-19T12:40:35.618Z,19648
2017-04-19T12:41:35.893Z,19120
2017-04-19T12:42:35.577Z,20320
2017-04-19T12:43:35.850Z,21248
2017-04-19T12:44:35.829Z,22176
2017-04-19T12:45:35.815Z,24256
2017-04-19T12:46:35.795Z,23648
2017-04-19T12:47:35.466Z,22112
2017-04-19T12:48:35.749Z,19936
2017-04-19T12:49:35.426Z,18344
2017-04-19T12:50:35.407Z,17796
2017-04-19T12:51:35.383Z,17320
2017-04-19T12:52:35.364Z,17344
2017-04-19T12:53:35.644Z,17872
2017-04-19T12:54:35.624Z,18340
2017-04-19T12:55:35.702Z,18580
2017-04-19T12:56:35.586Z,17932
2017-04-19T12:57:35.257Z,17144
2017-04-19T12:58:35.241Z,18024
2017-04-19T12:59:34.913Z,18420
2017-04-19T13:00:35.491Z,17580
2017-04-19T13:01:35.167Z,17136
2017-04-19T13:02:34.845Z,16496
2017-04-19T13:03:34.821Z,16200
2017-04-19T13:04:34.803Z,17100
2017-04-19T13:05:35.383Z,18092
2017-04-19T13:06:34.763Z,19104
2017-04-19T13:07:35.333Z,19068
2017-04-19T13:08:35.315Z,18324
2017-04-19T13:09:35.300Z,17428
2017-04-19T13:10:35.271Z,16936
2017-04-19T13:11:35.242Z,16672
2017-04-19T13:12:35.242Z,16712
2017-04-19T13:13:35.433Z,17532
2017-04-19T13:14:34.575Z,18360
2017-04-19T13:15:35.161Z,18404
2017-04-19T13:16:35.158Z,16716
2017-04-19T13:17:34.812Z,15364
2017-04-19T13:18:34.805Z,14752
2017-04-19T13:19:34.772Z,16932
2017-04-19T13:20:35.047Z,18728
2017-04-19T13:21:34.734Z,18084
2017-04-19T13:22:34.870Z,20448
2017-04-19T13:23:34.676Z,18152
2017-04-19T13:24:34.651Z,20800
2017-04-19T13:25:34.328Z,21312
2017-04-19T13:26:34.917Z,20096
2017-04-19T13:27:34.909Z,24864
2017-04-19T13:28:34.877Z,25920
2017-04-19T13:29:34.849Z,22816
2017-04-19T13:30:34.833Z,30112
2017-04-19T13:31:34.517Z,31392
2017-04-19T13:32:34.778Z,31680
2017-04-19T13:33:34.761Z,23456
2017-04-19T13:34:34.732Z,23808
2017-04-19T13:35:34.712Z,31488
2017-04-19T13:36:34.689Z,25600
2017-04-19T13:37:34.369Z,23488
2017-04-19T13:38:34.644Z,22112
2017-04-19T13:39:34.623Z,21568
2017-04-19T13:40:34.301Z,21760
2017-04-19T13:41:34.590Z,21952
2017-04-19T13:42:34.559Z,21280
2017-04-19T13:43:34.528Z,20128